Time;durP1;ratioP1;P1;durP2;ratioP2;P2;SDS_P1;SDS_P2;PMS_P1;PMS_P2;Temp;Humidity;BMP_temperature;BMP_pressure;BME280_temperature;BME280_humidity;BME280_pressure;Samples;Min_cycle;Max_cycle;Signal;HPM_P1;HPM_P2
2023/01/11 00:00:44;;;;;;;1.08;0.10;;;6.80;99.90;;;;;;5014162;28;20179;-64
2023/01/11 00:03:10;;;;;;;0.00;0.00;;;6.80;99.90;;;;;;5013727;28;20186;-64
2023/01/11 00:05:41;;;;;;;0.77;0.77;;;6.80;99.90;;;;;;5014145;28;20186;-64
2023/01/11 00:08:07;;;;;;;0.00;0.00;;;6.80;99.90;;;;;;5013598;28;20185;-64
2023/01/11 00:10:32;;;;;;;0.00;0.00;;;6.90;99.90;;;;;;5014152;28;20225;-64
2023/01/11 00:12:59;;;;;;;0.00;0.00;;;6.80;99.90;;;;;;5013446;28;20590;-63
2023/01/11 00:15:24;;;;;;;0.00;0.00;;;6.80;99.90;;;;;;5013394;28;20186;-63
2023/01/11 00:17:50;;;;;;;0.00;0.00;;;6.80;99.90;;;;;;5012825;28;20183;-64
2023/01/11 00:20:16;;;;;;;0.32;0.32;;;6.90;99.90;;;;;;5013548;28;20197;-64
2023/01/11 00:22:42;;;;;;;0.00;0.00;;;6.90;99.90;;;;;;5011251;28;20198;-63
2023/01/11 00:25:08;;;;;;;0.00;0.00;;;6.80;99.90;;;;;;5013464;28;20222;-63
2023/01/11 00:27:33;;;;;;;0.00;0.00;;;6.90;99.90;;;;;;5013472;28;20187;-63
2023/01/11 00:29:59;;;;;;;0.00;0.00;;;6.90;99.90;;;;;;5013724;28;20273;-63
2023/01/11 00:32:26;;;;;;;0.00;0.00;;;6.90;99.90;;;;;;5013040;28;20171;-63
2023/01/11 00:34:52;;;;;;;0.00;0.00;;;6.90;99.90;;;;;;5013106;28;20534;-63
2023/01/11 00:37:17;;;;;;;0.60;0.30;;;6.90;99.90;;;;;;5013607;28;20240;-64
2023/01/11 00:39:43;;;;;;;0.00;0.00;;;6.90;99.90;;;;;;5013390;28;20186;-63
2023/01/11 00:47:59;;;;;;;0.00;0.00;;;6.90;99.90;;;;;;5013649;28;20186;-64
2023/01/11 00:50:28;;;;;;;0.00;0.00;;;6.90;99.90;;;;;;5013292;28;20191;-63
2023/01/11 00:52:53;;;;;;;0.00;0.00;;;6.90;99.90;;;;;;5012888;28;20578;-64
2023/01/11 00:55:19;;;;;;;0.00;0.00;;;7.00;99.90;;;;;;5013372;28;20187;-63
2023/01/11 00:57:44;;;;;;;0.00;0.00;;;7.00;99.90;;;;;;5012959;28;20182;-64
2023/01/11 01:00:11;;;;;;;0.00;0.00;;;7.00;99.90;;;;;;5012873;28;20175;-63
2023/01/11 01:02:36;;;;;;;0.00;0.00;;;7.00;99.90;;;;;;5013036;28;20187;-64
2023/01/11 01:05:02;;;;;;;0.00;0.00;;;7.10;99.90;;;;;;5012946;28;20237;-64
2023/01/11 01:07:27;;;;;;;0.00;0.00;;;7.10;99.90;;;;;;5012663;28;20637;-63
2023/01/11 01:09:53;;;;;;;0.00;0.00;;;7.10;99.90;;;;;;5013136;28;20178;-63
2023/01/11 01:15:03;;;;;;;0.10;0.10;;;7.10;99.90;;;;;;5012692;28;20240;-63
2023/01/11 01:17:29;;;;;;;0.00;0.00;;;7.10;99.90;;;;;;5012606;28;20641;-63
2023/01/11 01:19:54;;;;;;;0.00;0.00;;;7.10;99.90;;;;;;5012941;28;20218;-63
2023/01/11 01:22:20;;;;;;;0.00;0.00;;;7.10;99.90;;;;;;5012469;28;20183;-63
2023/01/11 01:24:45;;;;;;;0.00;0.00;;;7.10;99.90;;;;;;5012514;28;20645;-64
2023/01/11 01:27:15;;;;;;;0.00;0.00;;;7.10;99.90;;;;;;5012224;28;20179;-64
2023/01/11 01:29:41;;;;;;;0.00;0.00;;;7.20;99.90;;;;;;5012028;28;20193;-63
2023/01/11 01:32:06;;;;;;;0.00;0.00;;;7.20;99.90;;;;;;5011835;28;20182;-63
2023/01/11 01:34:36;;;;;;;0.00;0.00;;;7.20;99.90;;;;;;5011565;28;20269;-63
2023/01/11 01:37:02;;;;;;;0.00;0.00;;;7.20;99.90;;;;;;5012147;28;20553;-63
2023/01/11 01:39:28;;;;;;;0.00;0.00;;;7.20;99.90;;;;;;5011925;28;20677;-63
2023/01/11 01:41:53;;;;;;;0.00;0.00;;;7.20;99.90;;;;;;5012389;28;20274;-64
2023/01/11 01:44:50;;;;;;;0.00;0.00;;;7.20;99.90;;;;;;5011893;28;20222;-65
2023/01/11 01:47:16;;;;;;;0.00;0.00;;;7.20;99.90;;;;;;5011737;28;20200;-64
2023/01/11 01:49:43;;;;;;;0.00;0.00;;;7.20;99.90;;;;;;5012055;28;20186;-64
2023/01/11 01:52:10;;;;;;;0.00;0.00;;;7.30;99.90;;;;;;5011900;28;20538;-64
2023/01/11 01:54:41;;;;;;;0.00;0.00;;;7.30;99.90;;;;;;5011760;28;20309;-62
2023/01/11 01:57:28;;;;;;;0.00;0.00;;;7.20;99.90;;;;;;5011705;28;20241;-62
2023/01/11 01:59:56;;;;;;;0.00;0.00;;;7.20;99.90;;;;;;5012082;28;20206;-62
2023/01/11 02:02:24;;;;;;;0.00;0.00;;;7.20;99.90;;;;;;4994000;28;20232;-62
2023/01/11 02:04:55;;;;;;;0.00;0.00;;;7.20;99.90;;;;;;5011770;28;20206;-62
2023/01/11 02:07:26;;;;;;;0.00;0.00;;;7.20;99.90;;;;;;4996098;28;20182;-62
2023/01/11 02:10:04;;;;;;;0.00;0.00;;;7.20;99.90;;;;;;5012124;28;20174;-62
2023/01/11 02:12:44;;;;;;;0.20;0.20;;;7.20;99.90;;;;;;5011619;28;20183;-62
2023/01/11 02:15:11;;;;;;;0.45;0.45;;;7.20;99.90;;;;;;5011827;28;20589;-63
2023/01/11 02:17:36;;;;;;;0.35;0.30;;;7.20;99.90;;;;;;5011644;28;20206;-62
2023/01/11 02:20:32;;;;;;;0.00;0.00;;;7.20;99.90;;;;;;5011730;28;20630;-62
2023/01/11 02:23:16;;;;;;;0.00;0.00;;;7.20;99.90;;;;;;5011705;28;20215;-63
2023/01/11 02:26:08;;;;;;;0.00;0.00;;;7.20;99.90;;;;;;5011803;28;20190;-63
2023/01/11 02:28:52;;;;;;;0.30;0.30;;;7.30;99.90;;;;;;5011417;28;20190;-63
2023/01/11 02:31:40;;;;;;;0.00;0.00;;;7.30;99.90;;;;;;5011394;28;20175;-64
2023/01/11 02:34:21;;;;;;;0.00;0.00;;;7.30;99.90;;;;;;5011601;28;20183;-63
2023/01/11 02:36:53;;;;;;;0.00;0.00;;;7.30;99.90;;;;;;5011422;28;20186;-63
2023/01/11 02:39:54;;;;;;;0.20;0.20;;;7.20;99.90;;;;;;5011107;28;20179;-63
2023/01/11 02:45:41;;;;;;;0.00;0.00;;;7.20;99.90;;;;;;5014362;28;20225;-64
2023/01/11 02:48:16;;;;;;;0.00;0.00;;;7.20;99.90;;;;;;5015325;28;20206;-64
2023/01/11 02:51:06;;;;;;;0.00;0.00;;;7.10;99.90;;;;;;5015664;28;20194;-63
2023/01/11 02:53:41;;;;;;;0.10;0.10;;;7.10;99.90;;;;;;4999879;28;20222;-63
2023/01/11 02:56:11;;;;;;;0.00;0.00;;;7.10;99.90;;;;;;5015183;28;20529;-63
2023/01/11 02:58:41;;;;;;;0.00;0.00;;;7.10;99.90;;;;;;5015334;28;20541;-64
2023/01/11 03:01:07;;;;;;;0.00;0.00;;;7.10;99.90;;;;;;5015165;28;20236;-63
2023/01/11 03:03:33;;;;;;;0.00;0.00;;;7.10;99.90;;;;;;4997455;28;20178;-63
2023/01/11 03:06:05;;;;;;;0.00;0.00;;;7.10;99.90;;;;;;5015178;28;20697;-63
2023/01/11 03:08:45;;;;;;;0.00;0.00;;;7.10;99.90;;;;;;5014997;28;20183;-63
2023/01/11 03:12:50;;;;;;;0.00;0.00;;;7.10;99.90;;;;;;5015311;28;20185;-63
2023/01/11 03:14:17;;;;;;;0.00;0.00;;;7.20;99.90;;;;;;5015073;28;20194;-63
2023/01/11 03:16:46;;;;;;;0.00;0.00;;;7.20;99.90;;;;;;5014838;28;20216;-63
2023/01/11 03:19:31;;;;;;;0.00;0.00;;;7.20;99.90;;;;;;5014939;28;20183;-63
2023/01/11 03:22:06;;;;;;;0.00;0.00;;;7.20;99.90;;;;;;4997411;28;20185;-63
2023/01/11 03:24:34;;;;;;;0.00;0.00;;;7.30;99.90;;;;;;5014962;28;20221;-64
2023/01/11 03:27:15;;;;;;;0.00;0.00;;;7.30;99.90;;;;;;5015003;28;20175;-64
2023/01/11 03:29:57;;;;;;;0.00;0.00;;;7.30;99.90;;;;;;5002289;28;20244;-64
2023/01/11 03:32:33;;;;;;;0.00;0.00;;;7.30;99.90;;;;;;5014453;28;20525;-64
2023/01/11 03:35:23;;;;;;;0.00;0.00;;;7.40;99.90;;;;;;5013386;28;20191;-64
2023/01/11 03:37:58;;;;;;;0.00;0.00;;;7.40;99.90;;;;;;4999998;28;20290;-64
2023/01/11 03:40:35;;;;;;;0.00;0.00;;;7.40;99.90;;;;;;5014290;28;20182;-64
2023/01/11 03:43:09;;;;;;;0.00;0.00;;;7.40;99.90;;;;;;5014458;28;20186;-64
2023/01/11 03:45:52;;;;;;;0.00;0.00;;;7.40;99.90;;;;;;5013567;28;20577;-63
2023/01/11 03:48:32;;;;;;;0.00;0.00;;;7.50;99.90;;;;;;5012740;28;20658;-63
2023/01/11 03:51:00;;;;;;;0.00;0.00;;;7.50;99.90;;;;;;5014019;28;20214;-63
2023/01/11 03:53:30;;;;;;;0.00;0.00;;;7.50;99.90;;;;;;5013626;28;20277;-63
2023/01/11 03:55:57;;;;;;;0.00;0.00;;;7.50;99.90;;;;;;5012988;28;20187;-63
2023/01/11 03:58:25;;;;;;;0.00;0.00;;;7.50;99.90;;;;;;5014330;28;20630;-64
2023/01/11 04:00:53;;;;;;;0.00;0.00;;;7.50;99.90;;;;;;5014069;28;20186;-64
2023/01/11 04:03:19;;;;;;;0.00;0.00;;;7.50;99.90;;;;;;5013728;28;20453;-63
2023/01/11 04:05:48;;;;;;;0.00;0.00;;;7.60;99.90;;;;;;5013857;28;20190;-63
2023/01/11 04:08:13;;;;;;;0.00;0.00;;;7.50;99.90;;;;;;5014208;28;20534;-63
2023/01/11 04:10:39;;;;;;;0.00;0.00;;;7.60;99.90;;;;;;4996307;28;20212;-63
2023/01/11 04:13:04;;;;;;;0.00;0.00;;;7.60;99.90;;;;;;5013812;28;20183;-63
2023/01/11 04:15:31;;;;;;;0.00;0.00;;;7.70;99.90;;;;;;5013511;28;20186;-63
2023/01/11 04:18:04;;;;;;;0.00;0.00;;;7.70;99.90;;;;;;4996067;28;20183;-63
2023/01/11 04:20:35;;;;;;;0.00;0.00;;;7.70;99.90;;;;;;5006938;28;20843;-64
2023/01/11 04:23:00;;;;;;;0.00;0.00;;;7.80;99.90;;;;;;4995197;28;20191;-64
2023/01/11 04:25:27;;;;;;;0.00;0.00;;;7.80;99.90;;;;;;5013378;28;20653;-64
2023/01/11 04:27:53;;;;;;;0.00;0.00;;;7.80;99.90;;;;;;4995462;28;20622;-64
2023/01/11 04:30:18;;;;;;;0.00;0.00;;;7.90;99.90;;;;;;5006191;28;20294;-64
2023/01/11 04:32:44;;;;;;;0.00;0.00;;;7.90;99.90;;;;;;5012538;28;20179;-65
2023/01/11 04:35:09;;;;;;;0.00;0.00;;;7.90;99.90;;;;;;5013568;28;20187;-66
2023/01/11 04:37:35;;;;;;;0.00;0.00;;;8.00;99.90;;;;;;5011611;28;20182;-64
2023/01/11 04:40:01;;;;;;;0.00;0.00;;;8.00;99.90;;;;;;4997172;28;20210;-66
2023/01/11 04:42:26;;;;;;;0.00;0.00;;;8.00;99.90;;;;;;4993935;28;20195;-66
2023/01/11 04:44:52;;;;;;;0.00;0.00;;;8.00;99.90;;;;;;5012762;28;20207;-67
2023/01/11 04:47:20;;;;;;;0.00;0.00;;;8.00;99.90;;;;;;5003727;28;20177;-65
2023/01/11 04:49:46;;;;;;;0.00;0.00;;;8.10;99.90;;;;;;5008748;28;20195;-68
2023/01/11 04:52:13;;;;;;;0.00;0.00;;;8.10;99.90;;;;;;5006783;28;20182;-66
2023/01/11 04:54:39;;;;;;;0.00;0.00;;;8.10;99.90;;;;;;5002717;28;20239;-67
2023/01/11 04:57:06;;;;;;;0.00;0.00;;;8.10;99.90;;;;;;5013975;28;20185;-67
2023/01/11 04:59:31;;;;;;;0.00;0.00;;;8.10;99.90;;;;;;5013400;28;20183;-65
2023/01/11 05:01:57;;;;;;;0.00;0.00;;;8.10;99.90;;;;;;5013104;28;20187;-64
2023/01/11 05:04:23;;;;;;;0.10;0.10;;;8.10;99.90;;;;;;5011181;28;20268;-66
2023/01/11 05:06:48;;;;;;;0.00;0.00;;;8.10;99.90;;;;;;5007386;28;20244;-65
2023/01/11 05:09:16;;;;;;;0.00;0.00;;;8.10;99.90;;;;;;5013123;28;20178;-65
2023/01/11 05:11:42;;;;;;;0.00;0.00;;;8.10;99.90;;;;;;5013453;28;20179;-65
2023/01/11 05:14:07;;;;;;;0.00;0.00;;;8.10;99.90;;;;;;5013248;28;20191;-62
2023/01/11 05:16:33;;;;;;;0.00;0.00;;;8.10;99.90;;;;;;5013349;28;20300;-67
2023/01/11 05:19:00;;;;;;;0.00;0.00;;;8.10;99.90;;;;;;5012783;28;20195;-66
2023/01/11 05:21:34;;;;;;;0.00;0.00;;;8.10;99.90;;;;;;5013031;28;20666;-66
2023/01/11 05:24:02;;;;;;;0.00;0.00;;;8.10;99.90;;;;;;5013431;28;20245;-65
2023/01/11 05:26:32;;;;;;;0.00;0.00;;;8.10;99.90;;;;;;5013088;28;20199;-65
2023/01/11 05:29:00;;;;;;;0.00;0.00;;;8.10;99.90;;;;;;5013117;28;20175;-69
2023/01/11 05:31:26;;;;;;;0.00;0.00;;;8.10;99.90;;;;;;5012974;28;20623;-64
2023/01/11 05:33:55;;;;;;;0.10;0.10;;;8.10;99.90;;;;;;5012916;28;20257;-65
2023/01/11 05:36:23;;;;;;;0.00;0.00;;;8.10;99.90;;;;;;5012855;28;20185;-65
2023/01/11 05:38:50;;;;;;;0.00;0.00;;;8.10;99.90;;;;;;5012764;28;20637;-65
2023/01/11 05:41:16;;;;;;;0.00;0.00;;;8.10;99.90;;;;;;5012915;28;20179;-64
2023/01/11 05:46:32;;;;;;;0.00;0.00;;;8.10;99.90;;;;;;5011818;28;20715;-66
2023/01/11 05:48:58;;;;;;;0.00;0.00;;;8.10;99.90;;;;;;5012472;28;20187;-66
2023/01/11 05:51:25;;;;;;;0.00;0.00;;;8.10;99.90;;;;;;4994526;28;20537;-64
2023/01/11 05:53:52;;;;;;;0.00;0.00;;;8.00;99.90;;;;;;5012396;28;20729;-64
2023/01/11 05:56:18;;;;;;;0.00;0.00;;;8.00;99.90;;;;;;5012765;28;20214;-64
2023/01/11 05:58:47;;;;;;;0.00;0.00;;;8.00;99.90;;;;;;5012657;28;20233;-64
2023/01/11 06:01:13;;;;;;;0.00;0.00;;;8.00;99.90;;;;;;5012706;28;20175;-64
2023/01/11 06:03:39;;;;;;;0.00;0.00;;;7.90;99.90;;;;;;5012348;28;20171;-64
2023/01/11 06:06:05;;;;;;;0.00;0.00;;;8.00;99.90;;;;;;5012561;28;20182;-64
2023/01/11 06:08:30;;;;;;;0.00;0.00;;;8.00;99.90;;;;;;5012370;28;20641;-64
2023/01/11 06:10:56;;;;;;;0.00;0.00;;;8.00;99.90;;;;;;5012394;28;20181;-64
2023/01/11 06:13:26;;;;;;;0.00;0.00;;;8.00;99.90;;;;;;5012434;28;20171;-64
2023/01/11 06:16:03;;;;;;;0.00;0.00;;;8.00;99.90;;;;;;5012585;28;20216;-64
2023/01/11 06:18:33;;;;;;;0.00;0.00;;;8.00;99.90;;;;;;5011910;28;20199;-64
2023/01/11 06:20:59;;;;;;;0.10;0.10;;;8.00;99.90;;;;;;5012290;28;20183;-64
2023/01/11 06:23:26;;;;;;;0.00;0.00;;;8.00;99.90;;;;;;5012341;28;20206;-64
2023/01/11 06:25:52;;;;;;;0.00;0.00;;;8.00;99.90;;;;;;5012357;28;20585;-64
2023/01/11 06:28:18;;;;;;;0.00;0.00;;;8.00;99.90;;;;;;5012387;28;20175;-64
2023/01/11 06:30:49;;;;;;;0.00;0.00;;;8.00;99.90;;;;;;5012237;28;20178;-64
2023/01/11 06:33:14;;;;;;;0.00;0.00;;;8.00;99.90;;;;;;5012275;28;20174;-64
2023/01/11 06:35:42;;;;;;;0.00;0.00;;;8.00;99.90;;;;;;5012310;28;20175;-64
2023/01/11 06:38:10;;;;;;;0.00;0.00;;;8.00;99.90;;;;;;5012342;28;20187;-64
2023/01/11 06:40:36;;;;;;;0.00;0.00;;;8.00;99.90;;;;;;5012031;28;20254;-64
2023/01/11 06:43:02;;;;;;;0.00;0.00;;;8.00;99.90;;;;;;5012361;28;20542;-65
2023/01/11 06:45:27;;;;;;;0.00;0.00;;;7.90;99.90;;;;;;5012030;28;20305;-64
2023/01/11 06:47:53;;;;;;;0.00;0.00;;;7.90;99.90;;;;;;5012239;28;20174;-65
2023/01/11 06:50:18;;;;;;;0.00;0.00;;;7.90;99.90;;;;;;5012410;28;20629;-65
2023/01/11 06:52:52;;;;;;;0.00;0.00;;;7.90;99.90;;;;;;5012103;28;20186;-65
2023/01/11 06:55:17;;;;;;;0.00;0.00;;;7.90;99.90;;;;;;5012229;28;20201;-65
2023/01/11 06:57:43;;;;;;;0.00;0.00;;;7.90;99.90;;;;;;5012017;28;20175;-65
2023/01/11 07:00:09;;;;;;;0.00;0.00;;;7.90;99.90;;;;;;5012146;28;20198;-65
2023/01/11 07:02:34;;;;;;;0.00;0.00;;;8.00;99.90;;;;;;5011869;28;20209;-65
2023/01/11 07:05:00;;;;;;;0.00;0.00;;;8.00;99.90;;;;;;5011898;28;20286;-65
2023/01/11 07:07:25;;;;;;;0.00;0.00;;;8.00;99.90;;;;;;5011870;28;20205;-65
2023/01/11 07:09:52;;;;;;;0.00;0.00;;;8.00;99.90;;;;;;5011978;28;20193;-65
2023/01/11 07:12:18;;;;;;;0.00;0.00;;;8.10;99.90;;;;;;5012064;28;20170;-65
2023/01/11 07:14:43;;;;;;;0.00;0.00;;;8.10;99.90;;;;;;4994381;28;20182;-65
2023/01/11 07:17:09;;;;;;;0.00;0.00;;;8.20;99.90;;;;;;5012023;28;20584;-65
2023/01/11 07:19:34;;;;;;;0.00;0.00;;;8.20;99.90;;;;;;5011748;28;20548;-65
2023/01/11 07:22:00;;;;;;;0.22;0.20;;;8.20;99.90;;;;;;5011949;28;20638;-65
2023/01/11 07:24:25;;;;;;;0.00;0.00;;;8.20;99.90;;;;;;5011755;28;20252;-65
2023/01/11 07:26:52;;;;;;;0.00;0.00;;;8.20;99.90;;;;;;5011976;28;20194;-65
2023/01/11 07:29:17;;;;;;;0.00;0.00;;;8.20;99.90;;;;;;5011794;28;20642;-65
2023/01/11 07:31:44;;;;;;;0.00;0.00;;;8.20;99.90;;;;;;5014933;28;20190;-65
2023/01/11 07:34:10;;;;;;;0.00;0.00;;;8.20;99.90;;;;;;5015480;28;20249;-65
2023/01/11 07:36:38;;;;;;;0.00;0.00;;;8.30;99.90;;;;;;5015318;28;20383;-65
2023/01/11 07:39:04;;;;;;;0.13;0.13;;;8.30;99.90;;;;;;5015588;28;20185;-65
2023/01/11 07:44:14;;;;;;;0.00;0.00;;;8.40;99.90;;;;;;5015115;28;20249;-65
2023/01/11 07:46:39;;;;;;;0.10;0.10;;;8.40;99.90;;;;;;5015201;28;20206;-65
2023/01/11 07:49:05;;;;;;;0.00;0.00;;;8.40;99.90;;;;;;5015292;28;20585;-65
2023/01/11 07:51:30;;;;;;;0.00;0.00;;;8.40;99.90;;;;;;5014988;28;20175;-65
2023/01/11 07:53:56;;;;;;;0.00;0.00;;;8.40;99.90;;;;;;5014987;28;20215;-65
2023/01/11 07:56:21;;;;;;;0.00;0.00;;;8.40;99.90;;;;;;5015042;28;20179;-65
2023/01/11 07:58:47;;;;;;;0.20;0.20;;;8.40;99.90;;;;;;5014953;28;20206;-65
2023/01/11 08:01:12;;;;;;;0.00;0.00;;;8.50;99.90;;;;;;5014898;28;20256;-65
2023/01/11 08:03:38;;;;;;;0.00;0.00;;;8.50;99.90;;;;;;5014864;28;20313;-65
2023/01/11 08:06:04;;;;;;;0.00;0.00;;;8.50;99.90;;;;;;5014779;28;20194;-65
2023/01/11 08:08:29;;;;;;;0.00;0.00;;;8.50;99.90;;;;;;5014762;28;20175;-65
2023/01/11 08:16:23;;;;;;;0.00;0.00;;;8.60;99.90;;;;;;5014949;28;20190;-64
2023/01/11 08:18:54;;;;;;;0.00;0.00;;;8.70;99.90;;;;;;5014499;28;20175;-65
2023/01/11 08:21:20;;;;;;;0.00;0.00;;;8.80;99.90;;;;;;4996904;28;20537;-65
2023/01/11 08:23:46;;;;;;;0.00;0.00;;;8.80;99.90;;;;;;5014321;28;20198;-65
2023/01/11 08:26:15;;;;;;;0.00;0.00;;;8.80;99.90;;;;;;5014387;28;20190;-65
2023/01/11 08:28:42;;;;;;;0.00;0.00;;;8.90;99.90;;;;;;5014446;28;20261;-65
2023/01/11 08:31:08;;;;;;;0.00;0.00;;;9.00;99.90;;;;;;5014481;28;20234;-65
2023/01/11 08:33:33;;;;;;;0.00;0.00;;;9.00;99.90;;;;;;5014134;28;20182;-64
2023/01/11 08:36:08;;;;;;;0.00;0.00;;;9.00;99.90;;;;;;5014236;28;20581;-64
2023/01/11 08:38:33;;;;;;;0.00;0.00;;;9.10;99.90;;;;;;5013913;28;20179;-65
2023/01/11 08:41:00;;;;;;;0.00;0.00;;;9.10;99.90;;;;;;5014165;28;20245;-65
2023/01/11 08:43:26;;;;;;;0.00;0.00;;;9.10;99.90;;;;;;5013463;28;20644;-65
2023/01/11 08:45:51;;;;;;;0.25;0.25;;;9.20;99.90;;;;;;5013797;28;20214;-65
2023/01/11 08:48:17;;;;;;;0.25;0.25;;;9.20;99.90;;;;;;5014132;28;20261;-65
2023/01/11 08:50:45;;;;;;;0.00;0.00;;;9.20;99.90;;;;;;5013856;28;20179;-65
2023/01/11 08:53:11;;;;;;;0.00;0.00;;;9.30;99.90;;;;;;5013699;28;20229;-65
2023/01/11 08:55:37;;;;;;;0.00;0.00;;;9.30;99.90;;;;;;5013972;28;20544;-65
2023/01/11 08:58:02;;;;;;;0.00;0.00;;;9.30;99.90;;;;;;5013878;28;20194;-65
2023/01/11 09:00:28;;;;;;;0.00;0.00;;;9.30;99.90;;;;;;5013786;28;20186;-65
2023/01/11 09:02:53;;;;;;;0.00;0.00;;;9.30;99.90;;;;;;5013521;28;20186;-65
2023/01/11 09:05:19;;;;;;;0.00;0.00;;;9.30;99.90;;;;;;5013656;28;20222;-65
2023/01/11 09:07:45;;;;;;;0.00;0.00;;;9.30;99.90;;;;;;5013692;28;20193;-65
2023/01/11 09:10:10;;;;;;;0.00;0.00;;;9.40;99.90;;;;;;5013601;28;20186;-65
2023/01/11 09:12:36;;;;;;;0.00;0.00;;;9.40;99.90;;;;;;5013577;28;20310;-65
2023/01/11 09:15:04;;;;;;;0.00;0.00;;;9.40;99.90;;;;;;5013631;28;20213;-65
2023/01/11 09:17:30;;;;;;;0.00;0.00;;;9.40;99.90;;;;;;5013515;28;20513;-65
2023/01/11 09:19:56;;;;;;;0.00;0.00;;;9.40;99.90;;;;;;5013500;28;20178;-65
2023/01/11 09:22:21;;;;;;;0.00;0.00;;;9.40;99.90;;;;;;5013361;28;20173;-65
2023/01/11 09:24:47;;;;;;;0.00;0.00;;;9.50;99.90;;;;;;5013609;28;20218;-65
2023/01/11 09:27:13;;;;;;;0.00;0.00;;;9.50;99.90;;;;;;5013169;28;20183;-65
2023/01/11 09:29:38;;;;;;;0.00;0.00;;;9.50;99.90;;;;;;5013355;28;20174;-65
2023/01/11 09:32:04;;;;;;;0.00;0.00;;;9.50;99.90;;;;;;5013247;28;20178;-65
2023/01/11 09:34:30;;;;;;;0.22;0.22;;;9.50;99.90;;;;;;5013062;28;20175;-65
2023/01/11 09:36:58;;;;;;;0.00;0.00;;;9.50;99.90;;;;;;5013217;28;20186;-65
2023/01/11 09:39:26;;;;;;;0.00;0.00;;;9.50;99.90;;;;;;5013135;28;20325;-64
2023/01/11 09:42:10;;;;;;;0.00;0.00;;;9.60;99.90;;;;;;5013183;28;20516;-65
2023/01/11 09:44:48;;;;;;;0.10;0.10;;;9.60;99.90;;;;;;5012882;28;20222;-65
2023/01/11 09:47:26;;;;;;;0.00;0.00;;;9.60;99.90;;;;;;5012922;28;20213;-65
2023/01/11 09:49:57;;;;;;;0.00;0.00;;;9.60;99.90;;;;;;5013006;28;20224;-65
2023/01/11 09:52:35;;;;;;;0.00;0.00;;;9.60;99.90;;;;;;5012955;28;20204;-62
2023/01/11 09:55:01;;;;;;;0.00;0.00;;;9.60;99.90;;;;;;5011777;28;20241;-65
2023/01/11 09:57:41;;;;;;;0.00;0.00;;;9.60;99.90;;;;;;5012738;28;20190;-65
2023/01/11 10:00:34;;;;;;;0.00;0.00;;;9.60;99.90;;;;;;4996522;28;20182;-65
2023/01/11 10:03:00;;;;;;;0.00;0.00;;;9.60;99.90;;;;;;5012828;28;20171;-65
2023/01/11 10:05:40;;;;;;;0.00;0.00;;;9.50;99.90;;;;;;5012533;28;20229;-65
2023/01/11 10:08:39;;;;;;;0.00;0.00;;;9.50;99.90;;;;;;5012809;28;20187;-65
2023/01/11 10:11:29;;;;;;;0.00;0.00;;;9.60;99.90;;;;;;5012705;28;20189;-65
2023/01/11 10:14:07;;;;;;;0.00;0.00;;;9.50;99.90;;;;;;5012526;28;20171;-65
2023/01/11 10:17:05;;;;;;;0.00;0.00;;;9.50;99.90;;;;;;5012306;28;20190;-65
2023/01/11 10:19:44;;;;;;;0.00;0.00;;;9.60;99.90;;;;;;5009369;28;20230;-65
2023/01/11 10:22:18;;;;;;;0.00;0.00;;;9.60;99.90;;;;;;5012503;28;20175;-64
2023/01/11 10:24:58;;;;;;;0.00;0.00;;;9.60;99.90;;;;;;5012406;28;20201;-64
2023/01/11 10:27:37;;;;;;;0.00;0.00;;;9.70;99.90;;;;;;5012473;28;20570;-65
2023/01/11 10:36:33;;;;;;;0.00;0.00;;;9.80;99.90;;;;;;5012656;28;20204;-65
2023/01/11 10:42:06;;;;;;;0.00;0.00;;;10.00;99.90;;;;;;5012295;28;20186;-65
2023/01/11 10:44:37;;;;;;;0.00;0.00;;;10.10;99.90;;;;;;5012013;28;20198;-65
2023/01/11 10:47:10;;;;;;;0.00;0.00;;;10.20;99.90;;;;;;5012347;28;20179;-65
2023/01/11 10:49:50;;;;;;;0.00;0.00;;;10.20;99.90;;;;;;5012186;28;20179;-65
2023/01/11 10:52:28;;;;;;;0.00;0.00;;;10.30;99.90;;;;;;5012210;28;20581;-64
2023/01/11 10:54:56;;;;;;;0.00;0.00;;;10.40;99.90;;;;;;5011892;28;20254;-65
2023/01/11 10:57:35;;;;;;;0.00;0.00;;;10.40;99.90;;;;;;5012130;28;20175;-65
2023/01/11 11:00:16;;;;;;;0.00;0.00;;;10.40;99.90;;;;;;5012078;28;20167;-65
2023/01/11 11:03:03;;;;;;;0.00;0.00;;;10.40;99.90;;;;;;5011995;28;20705;-65
2023/01/11 11:05:43;;;;;;;0.00;0.00;;;10.50;99.90;;;;;;5013412;28;20712;-65
2023/01/11 11:08:27;;;;;;;0.00;0.00;;;10.50;99.90;;;;;;5015960;28;20224;-64
2023/01/11 11:11:14;;;;;;;0.00;0.00;;;10.60;99.90;;;;;;5015706;28;20266;-65
2023/01/11 11:13:54;;;;;;;0.00;0.00;;;10.60;99.90;;;;;;5015810;28;20553;-65
2023/01/11 11:16:22;;;;;;;0.00;0.00;;;10.60;99.90;;;;;;5015734;28;20241;-65
2023/01/11 11:18:50;;;;;;;0.00;0.00;;;10.60;99.90;;;;;;5015576;28;20175;-65
2023/01/11 11:21:30;;;;;;;0.00;0.00;;;10.70;99.90;;;;;;5015624;28;20171;-65
2023/01/11 11:24:00;;;;;;;0.00;0.00;;;10.70;99.90;;;;;;5015602;28;20245;-65
2023/01/11 11:26:36;;;;;;;0.00;0.00;;;10.70;99.90;;;;;;5015627;28;20187;-65
2023/01/11 11:29:07;;;;;;;0.00;0.00;;;10.70;99.90;;;;;;5015662;28;20171;-65
2023/01/11 11:31:36;;;;;;;0.00;0.00;;;10.70;99.90;;;;;;5015351;28;20228;-65
2023/01/11 11:34:14;;;;;;;0.00;0.00;;;10.70;99.90;;;;;;5015548;28;20854;-65
2023/01/11 11:36:45;;;;;;;0.00;0.00;;;10.70;99.90;;;;;;5015325;28;20178;-65
2023/01/11 11:39:22;;;;;;;0.00;0.00;;;10.70;99.90;;;;;;5015164;28;20183;-65
2023/01/11 11:42:05;;;;;;;0.03;0.03;;;10.70;99.90;;;;;;5015289;28;20183;-65
2023/01/11 11:44:30;;;;;;;0.00;0.00;;;10.60;99.90;;;;;;5014904;28;20620;-65
2023/01/11 11:47:01;;;;;;;0.00;0.00;;;10.70;99.90;;;;;;5015212;28;20266;-65
2023/01/11 11:49:30;;;;;;;0.00;0.00;;;10.60;99.90;;;;;;5015330;28;20532;-65
2023/01/11 11:51:57;;;;;;;0.00;0.00;;;10.60;99.90;;;;;;5015214;28;20179;-65
2023/01/11 11:54:30;;;;;;;0.00;0.00;;;10.60;99.90;;;;;;5014880;28;20270;-65
2023/01/11 11:57:11;;;;;;;0.00;0.00;;;10.60;99.90;;;;;;5014926;28;20691;-65
2023/01/11 11:59:37;;;;;;;0.00;0.00;;;10.60;99.90;;;;;;5014983;28;20187;-65
2023/01/11 12:02:10;;;;;;;0.00;0.00;;;10.60;99.90;;;;;;5014980;28;20274;-65
2023/01/11 12:04:46;;;;;;;0.00;0.00;;;10.50;99.90;;;;;;5014786;28;20226;-65
2023/01/11 12:07:15;;;;;;;0.00;0.00;;;10.50;99.90;;;;;;5014784;28;20244;-65
2023/01/11 12:09:54;;;;;;;0.00;0.00;;;10.50;99.90;;;;;;5014542;28;20179;-65
2023/01/11 12:12:21;;;;;;;0.00;0.00;;;10.40;99.90;;;;;;5014788;28;20183;-65
2023/01/11 12:15:21;;;;;;;0.00;0.00;;;10.40;99.90;;;;;;5014575;28;20258;-65
2023/01/11 12:17:47;;;;;;;0.10;0.10;;;10.40;99.90;;;;;;4981157;28;20190;-65
2023/01/11 12:20:21;;;;;;;0.00;0.00;;;10.40;99.90;;;;;;5014544;28;20273;-65
2023/01/11 12:23:06;;;;;;;0.00;0.00;;;10.40;99.90;;;;;;5014619;28;20542;-65
2023/01/11 12:25:40;;;;;;;0.10;0.10;;;10.30;99.90;;;;;;5014376;28;20215;-65
2023/01/11 12:28:21;;;;;;;0.00;0.00;;;10.30;99.90;;;;;;5014528;28;20233;-65
2023/01/11 12:30:55;;;;;;;0.00;0.00;;;10.30;99.90;;;;;;5014418;28;20676;-65
2023/01/11 12:33:43;;;;;;;0.00;0.00;;;10.30;99.90;;;;;;5014283;28;20174;-63
2023/01/11 12:36:14;;;;;;;0.00;0.00;;;10.30;99.90;;;;;;5014327;28;20665;-64
2023/01/11 12:38:48;;;;;;;0.00;0.00;;;10.20;99.90;;;;;;5014221;28;20179;-64
2023/01/11 12:41:42;;;;;;;0.00;0.00;;;10.20;99.90;;;;;;5014089;28;20228;-65
2023/01/11 12:44:32;;;;;;;0.00;0.00;;;10.20;99.90;;;;;;5014070;28;20214;-65
2023/01/11 12:47:32;;;;;;;0.00;0.00;;;10.20;99.90;;;;;;5013979;28;20185;-65
2023/01/11 12:50:24;;;;;;;0.00;0.00;;;10.20;99.90;;;;;;5013993;28;20178;-65
2023/01/11 12:53:05;;;;;;;0.00;0.00;;;10.20;99.90;;;;;;5013912;28;20593;-66
2023/01/11 12:55:35;;;;;;;0.00;0.00;;;10.20;99.90;;;;;;5013754;28;20276;-66
2023/01/11 12:58:42;;;;;;;0.28;0.28;;;10.10;99.90;;;;;;5013888;28;20179;-66
2023/01/11 13:01:25;;;;;;;0.00;0.00;;;9.90;99.90;;;;;;5013875;28;20171;-66
2023/01/11 13:04:09;;;;;;;0.00;0.00;;;9.70;99.90;;;;;;5013677;28;20174;-66
2023/01/11 13:06:38;;;;;;;0.00;0.00;;;9.60;99.90;;;;;;5013520;28;20229;-65
2023/01/11 13:09:28;;;;;;;0.10;0.10;;;9.50;99.90;;;;;;5013700;28;20171;-65
2023/01/11 13:12:14;;;;;;;0.00;0.00;;;9.50;99.90;;;;;;5013650;28;20183;-65
2023/01/11 13:15:04;;;;;;;0.00;0.00;;;9.50;99.90;;;;;;5013617;28;20204;-66
2023/01/11 13:17:52;;;;;;;0.00;0.00;;;9.40;99.90;;;;;;5013576;28;20186;-64
2023/01/11 13:20:27;;;;;;;0.00;0.00;;;9.40;99.90;;;;;;5013442;28;20170;-64
2023/01/11 13:22:59;;;;;;;0.00;0.00;;;9.50;99.90;;;;;;5013429;28;20225;-64
2023/01/11 13:25:30;;;;;;;0.00;0.00;;;9.50;99.90;;;;;;5013389;28;20214;-63
2023/01/11 13:27:59;;;;;;;0.00;0.00;;;9.50;99.90;;;;;;5013106;28;20210;-65
2023/01/11 13:30:25;;;;;;;0.00;0.00;;;9.60;99.90;;;;;;5013202;28;20431;-64
2023/01/11 13:33:01;;;;;;;0.00;0.00;;;9.60;99.90;;;;;;4979409;28;20205;-65
2023/01/11 13:35:38;;;;;;;0.00;0.00;;;9.70;99.90;;;;;;5013186;28;20191;-64
2023/01/11 13:38:14;;;;;;;0.00;0.00;;;9.70;99.90;;;;;;5013152;28;20305;-64
2023/01/11 13:40:53;;;;;;;0.00;0.00;;;9.70;99.90;;;;;;5012970;28;20586;-64
2023/01/11 13:43:35;;;;;;;0.00;0.00;;;9.70;99.90;;;;;;5013126;28;20550;-64
2023/01/11 13:46:15;;;;;;;0.00;0.00;;;9.70;99.90;;;;;;5012272;28;20207;-64
2023/01/11 13:48:42;;;;;;;0.00;0.00;;;9.80;99.90;;;;;;5007530;28;20261;-66